sensor_id;sensor_type;location;lat;lon;timestamp;P1;durP1;ratioP1;P2;durP2;ratioP2
25111;SDS011;13092;51.996;4.458;2022-07-23T00:01:49;12.73;;;11.55;;
25111;SDS011;13092;51.996;4.458;2022-07-23T00:04:18;12.55;;;11.45;;
25111;SDS011;13092;51.996;4.458;2022-07-23T00:06:46;10.45;;;9.50;;
25111;SDS011;13092;51.996;4.458;2022-07-23T00:09:17;11.48;;;10.27;;
25111;SDS011;13092;51.996;4.458;2022-07-23T00:11:45;11.38;;;10.48;;
25111;SDS011;13092;51.996;4.458;2022-07-23T00:14:13;11.48;;;10.35;;
25111;SDS011;13092;51.996;4.458;2022-07-23T00:16:45;12.20;;;10.68;;
25111;SDS011;13092;51.996;4.458;2022-07-23T00:19:16;13.40;;;12.15;;
25111;SDS011;13092;51.996;4.458;2022-07-23T00:21:44;13.13;;;11.90;;
25111;SDS011;13092;51.996;4.458;2022-07-23T00:24:12;13.02;;;12.00;;
25111;SDS011;13092;51.996;4.458;2022-07-23T00:26:42;13.27;;;12.10;;
25111;SDS011;13092;51.996;4.458;2022-07-23T00:29:10;14.40;;;13.23;;
25111;SDS011;13092;51.996;4.458;2022-07-23T00:31:40;14.32;;;13.13;;
25111;SDS011;13092;51.996;4.458;2022-07-23T00:34:13;13.43;;;12.30;;
25111;SDS011;13092;51.996;4.458;2022-07-23T00:36:42;13.43;;;12.15;;
25111;SDS011;13092;51.996;4.458;2022-07-23T00:39:11;13.63;;;12.38;;
25111;SDS011;13092;51.996;4.458;2022-07-23T00:41:41;12.52;;;11.32;;
25111;SDS011;13092;51.996;4.458;2022-07-23T00:44:16;13.60;;;11.63;;
25111;SDS011;13092;51.996;4.458;2022-07-23T00:46:49;13.40;;;12.20;;
25111;SDS011;13092;51.996;4.458;2022-07-23T00:49:21;12.68;;;11.57;;
25111;SDS011;13092;51.996;4.458;2022-07-23T00:51:56;12.35;;;11.20;;
25111;SDS011;13092;51.996;4.458;2022-07-23T00:54:26;13.30;;;12.20;;
25111;SDS011;13092;51.996;4.458;2022-07-23T00:56:55;13.75;;;12.45;;
25111;SDS011;13092;51.996;4.458;2022-07-23T00:59:23;14.30;;;12.90;;
25111;SDS011;13092;51.996;4.458;2022-07-23T01:01:54;14.50;;;13.10;;
25111;SDS011;13092;51.996;4.458;2022-07-23T01:04:22;14.65;;;13.25;;
25111;SDS011;13092;51.996;4.458;2022-07-23T01:06:50;14.55;;;13.15;;
25111;SDS011;13092;51.996;4.458;2022-07-23T01:09:20;13.98;;;12.68;;
25111;SDS011;13092;51.996;4.458;2022-07-23T01:11:48;15.18;;;13.82;;
25111;SDS011;13092;51.996;4.458;2022-07-23T01:14:18;16.63;;;13.30;;
25111;SDS011;13092;51.996;4.458;2022-07-23T01:16:47;14.18;;;12.98;;
25111;SDS011;13092;51.996;4.458;2022-07-23T01:19:17;13.90;;;12.57;;
25111;SDS011;13092;51.996;4.458;2022-07-23T01:21:47;15.65;;;14.45;;
25111;SDS011;13092;51.996;4.458;2022-07-23T01:24:17;17.65;;;16.23;;
25111;SDS011;13092;51.996;4.458;2022-07-23T01:26:46;17.55;;;15.95;;
25111;SDS011;13092;51.996;4.458;2022-07-23T01:29:16;15.77;;;14.32;;
25111;SDS011;13092;51.996;4.458;2022-07-23T01:31:45;14.10;;;12.82;;
25111;SDS011;13092;51.996;4.458;2022-07-23T01:34:14;14.32;;;13.02;;
25111;SDS011;13092;51.996;4.458;2022-07-23T01:36:42;14.68;;;13.20;;
25111;SDS011;13092;51.996;4.458;2022-07-23T01:39:11;15.45;;;13.80;;
25111;SDS011;13092;51.996;4.458;2022-07-23T01:41:41;15.27;;;13.77;;
25111;SDS011;13092;51.996;4.458;2022-07-23T01:44:11;16.38;;;14.70;;
25111;SDS011;13092;51.996;4.458;2022-07-23T01:46:39;15.75;;;14.52;;
25111;SDS011;13092;51.996;4.458;2022-07-23T01:49:08;15.27;;;13.88;;
25111;SDS011;13092;51.996;4.458;2022-07-23T01:51:37;15.80;;;14.18;;
25111;SDS011;13092;51.996;4.458;2022-07-23T01:54:25;15.55;;;14.15;;
25111;SDS011;13092;51.996;4.458;2022-07-23T01:56:55;15.68;;;14.27;;
25111;SDS011;13092;51.996;4.458;2022-07-23T01:59:23;14.45;;;13.13;;
25111;SDS011;13092;51.996;4.458;2022-07-23T02:01:51;14.90;;;13.38;;
25111;SDS011;13092;51.996;4.458;2022-07-23T02:04:20;14.10;;;12.88;;
25111;SDS011;13092;51.996;4.458;2022-07-23T02:06:49;14.48;;;13.07;;
25111;SDS011;13092;51.996;4.458;2022-07-23T02:09:18;14.25;;;13.02;;
25111;SDS011;13092;51.996;4.458;2022-07-23T02:11:46;14.25;;;12.95;;
25111;SDS011;13092;51.996;4.458;2022-07-23T02:14:15;14.52;;;13.40;;
25111;SDS011;13092;51.996;4.458;2022-07-23T02:16:44;14.63;;;13.32;;
25111;SDS011;13092;51.996;4.458;2022-07-23T02:19:12;14.43;;;13.13;;
25111;SDS011;13092;51.996;4.458;2022-07-23T02:21:40;14.75;;;13.40;;
25111;SDS011;13092;51.996;4.458;2022-07-23T02:24:08;14.50;;;13.18;;
25111;SDS011;13092;51.996;4.458;2022-07-23T02:26:37;14.32;;;13.07;;
25111;SDS011;13092;51.996;4.458;2022-07-23T02:29:05;14.80;;;13.45;;
25111;SDS011;13092;51.996;4.458;2022-07-23T02:31:34;15.20;;;13.68;;
25111;SDS011;13092;51.996;4.458;2022-07-23T02:34:03;14.50;;;13.10;;
25111;SDS011;13092;51.996;4.458;2022-07-23T02:36:31;14.45;;;13.02;;
25111;SDS011;13092;51.996;4.458;2022-07-23T02:38:59;14.23;;;12.88;;
25111;SDS011;13092;51.996;4.458;2022-07-23T02:41:27;15.27;;;13.90;;
25111;SDS011;13092;51.996;4.458;2022-07-23T02:43:56;14.45;;;13.10;;
25111;SDS011;13092;51.996;4.458;2022-07-23T02:46:24;14.43;;;13.13;;
25111;SDS011;13092;51.996;4.458;2022-07-23T02:48:53;14.50;;;13.30;;
25111;SDS011;13092;51.996;4.458;2022-07-23T02:51:21;14.20;;;13.05;;
25111;SDS011;13092;51.996;4.458;2022-07-23T02:53:49;15.27;;;13.73;;
25111;SDS011;13092;51.996;4.458;2022-07-23T02:56:18;14.15;;;12.85;;
25111;SDS011;13092;51.996;4.458;2022-07-23T02:58:46;15.25;;;13.85;;
25111;SDS011;13092;51.996;4.458;2022-07-23T03:01:14;12.50;;;11.50;;
25111;SDS011;13092;51.996;4.458;2022-07-23T03:03:46;14.60;;;13.20;;
25111;SDS011;13092;51.996;4.458;2022-07-23T03:06:16;14.43;;;13.07;;
25111;SDS011;13092;51.996;4.458;2022-07-23T03:08:44;15.88;;;12.57;;
25111;SDS011;13092;51.996;4.458;2022-07-23T03:11:12;14.30;;;13.00;;
25111;SDS011;13092;51.996;4.458;2022-07-23T03:13:42;14.25;;;12.13;;
25111;SDS011;13092;51.996;4.458;2022-07-23T03:16:10;13.75;;;11.65;;
25111;SDS011;13092;51.996;4.458;2022-07-23T03:18:39;12.73;;;11.57;;
25111;SDS011;13092;51.996;4.458;2022-07-23T03:21:08;14.05;;;12.75;;
25111;SDS011;13092;51.996;4.458;2022-07-23T03:23:38;13.23;;;12.13;;
25111;SDS011;13092;51.996;4.458;2022-07-23T03:26:06;12.63;;;11.43;;
25111;SDS011;13092;51.996;4.458;2022-07-23T03:28:34;11.65;;;10.65;;
25111;SDS011;13092;51.996;4.458;2022-07-23T03:31:02;12.43;;;11.23;;
25111;SDS011;13092;51.996;4.458;2022-07-23T03:33:33;13.75;;;12.38;;
25111;SDS011;13092;51.996;4.458;2022-07-23T03:36:01;13.48;;;12.27;;
25111;SDS011;13092;51.996;4.458;2022-07-23T03:38:34;14.60;;;13.30;;
25111;SDS011;13092;51.996;4.458;2022-07-23T03:41:04;14.05;;;12.63;;
25111;SDS011;13092;51.996;4.458;2022-07-23T03:43:33;14.88;;;13.45;;
25111;SDS011;13092;51.996;4.458;2022-07-23T03:46:01;15.63;;;14.07;;
25111;SDS011;13092;51.996;4.458;2022-07-23T03:48:29;15.07;;;13.57;;
25111;SDS011;13092;51.996;4.458;2022-07-23T03:50:57;14.82;;;13.38;;
25111;SDS011;13092;51.996;4.458;2022-07-23T03:53:27;14.48;;;13.27;;
25111;SDS011;13092;51.996;4.458;2022-07-23T03:55:58;14.05;;;12.65;;
25111;SDS011;13092;51.996;4.458;2022-07-23T03:58:27;13.68;;;12.25;;
25111;SDS011;13092;51.996;4.458;2022-07-23T04:00:56;15.02;;;12.80;;
25111;SDS011;13092;51.996;4.458;2022-07-23T04:03:24;14.15;;;12.65;;
25111;SDS011;13092;51.996;4.458;2022-07-23T04:05:52;13.77;;;12.40;;
25111;SDS011;13092;51.996;4.458;2022-07-23T04:08:20;12.65;;;11.52;;
25111;SDS011;13092;51.996;4.458;2022-07-23T04:10:48;12.25;;;11.05;;
25111;SDS011;13092;51.996;4.458;2022-07-23T04:13:16;12.75;;;11.45;;
25111;SDS011;13092;51.996;4.458;2022-07-23T04:15:46;12.07;;;10.98;;
25111;SDS011;13092;51.996;4.458;2022-07-23T04:18:14;13.63;;;11.57;;
25111;SDS011;13092;51.996;4.458;2022-07-23T04:20:43;16.48;;;11.57;;
25111;SDS011;13092;51.996;4.458;2022-07-23T04:23:12;13.43;;;12.07;;
25111;SDS011;13092;51.996;4.458;2022-07-23T04:25:41;11.98;;;10.70;;
25111;SDS011;13092;51.996;4.458;2022-07-23T04:28:09;13.65;;;11.00;;
25111;SDS011;13092;51.996;4.458;2022-07-23T04:30:38;13.15;;;11.45;;
25111;SDS011;13092;51.996;4.458;2022-07-23T04:33:07;11.48;;;10.38;;
25111;SDS011;13092;51.996;4.458;2022-07-23T04:35:36;13.32;;;11.93;;
25111;SDS011;13092;51.996;4.458;2022-07-23T04:38:04;13.18;;;11.05;;
25111;SDS011;13092;51.996;4.458;2022-07-23T04:40:33;12.48;;;10.45;;
25111;SDS011;13092;51.996;4.458;2022-07-23T04:43:02;11.00;;;9.98;;
25111;SDS011;13092;51.996;4.458;2022-07-23T04:45:31;14.40;;;10.05;;
25111;SDS011;13092;51.996;4.458;2022-07-23T04:47:59;10.35;;;9.35;;
25111;SDS011;13092;51.996;4.458;2022-07-23T04:50:28;11.70;;;9.25;;
25111;SDS011;13092;51.996;4.458;2022-07-23T04:52:57;10.93;;;8.75;;
25111;SDS011;13092;51.996;4.458;2022-07-23T04:55:25;10.43;;;8.77;;
25111;SDS011;13092;51.996;4.458;2022-07-23T04:57:53;10.90;;;8.55;;
25111;SDS011;13092;51.996;4.458;2022-07-23T05:00:21;10.43;;;8.60;;
25111;SDS011;13092;51.996;4.458;2022-07-23T05:02:49;10.68;;;9.52;;
25111;SDS011;13092;51.996;4.458;2022-07-23T05:05:18;11.07;;;9.13;;
25111;SDS011;13092;51.996;4.458;2022-07-23T05:07:47;10.75;;;8.35;;
25111;SDS011;13092;51.996;4.458;2022-07-23T05:10:16;10.52;;;8.65;;
25111;SDS011;13092;51.996;4.458;2022-07-23T05:12:44;10.77;;;8.30;;
25111;SDS011;13092;51.996;4.458;2022-07-23T05:15:12;9.40;;;8.40;;
25111;SDS011;13092;51.996;4.458;2022-07-23T05:17:40;11.82;;;9.48;;
25111;SDS011;13092;51.996;4.458;2022-07-23T05:20:11;10.93;;;9.27;;
25111;SDS011;13092;51.996;4.458;2022-07-23T05:22:39;11.57;;;9.73;;
25111;SDS011;13092;51.996;4.458;2022-07-23T05:25:09;13.23;;;10.40;;
25111;SDS011;13092;51.996;4.458;2022-07-23T05:27:38;14.57;;;9.40;;
25111;SDS011;13092;51.996;4.458;2022-07-23T05:30:06;11.98;;;8.95;;
25111;SDS011;13092;51.996;4.458;2022-07-23T05:32:35;15.20;;;8.85;;
25111;SDS011;13092;51.996;4.458;2022-07-23T05:35:04;13.25;;;8.57;;
25111;SDS011;13092;51.996;4.458;2022-07-23T05:37:33;13.65;;;8.35;;
25111;SDS011;13092;51.996;4.458;2022-07-23T05:40:02;10.48;;;8.65;;
25111;SDS011;13092;51.996;4.458;2022-07-23T05:42:33;9.45;;;8.18;;
25111;SDS011;13092;51.996;4.458;2022-07-23T05:45:02;9.77;;;7.70;;
25111;SDS011;13092;51.996;4.458;2022-07-23T05:47:39;9.02;;;7.68;;
25111;SDS011;13092;51.996;4.458;2022-07-23T05:50:08;8.63;;;6.68;;
25111;SDS011;13092;51.996;4.458;2022-07-23T05:52:39;9.35;;;6.00;;
25111;SDS011;13092;51.996;4.458;2022-07-23T05:55:09;7.38;;;5.78;;
25111;SDS011;13092;51.996;4.458;2022-07-23T05:57:41;8.60;;;6.72;;
25111;SDS011;13092;51.996;4.458;2022-07-23T06:00:13;10.88;;;6.82;;
25111;SDS011;13092;51.996;4.458;2022-07-23T06:02:44;7.88;;;6.00;;
25111;SDS011;13092;51.996;4.458;2022-07-23T06:05:20;8.70;;;5.80;;
25111;SDS011;13092;51.996;4.458;2022-07-23T06:07:48;8.05;;;4.93;;
25111;SDS011;13092;51.996;4.458;2022-07-23T06:10:16;9.07;;;6.07;;
25111;SDS011;13092;51.996;4.458;2022-07-23T06:12:46;6.50;;;5.00;;
25111;SDS011;13092;51.996;4.458;2022-07-23T06:15:14;9.35;;;5.40;;
25111;SDS011;13092;51.996;4.458;2022-07-23T06:17:43;6.65;;;5.05;;
25111;SDS011;13092;51.996;4.458;2022-07-23T06:20:13;8.80;;;5.13;;
25111;SDS011;13092;51.996;4.458;2022-07-23T06:22:41;8.02;;;5.60;;
25111;SDS011;13092;51.996;4.458;2022-07-23T06:25:09;6.97;;;4.53;;
25111;SDS011;13092;51.996;4.458;2022-07-23T06:27:46;7.18;;;4.35;;
25111;SDS011;13092;51.996;4.458;2022-07-23T06:30:16;7.93;;;4.80;;
25111;SDS011;13092;51.996;4.458;2022-07-23T06:32:45;5.63;;;4.53;;
25111;SDS011;13092;51.996;4.458;2022-07-23T06:35:16;6.65;;;4.50;;
25111;SDS011;13092;51.996;4.458;2022-07-23T06:37:45;6.82;;;4.68;;
25111;SDS011;13092;51.996;4.458;2022-07-23T06:40:14;7.43;;;4.18;;
25111;SDS011;13092;51.996;4.458;2022-07-23T06:42:42;5.53;;;3.70;;
25111;SDS011;13092;51.996;4.458;2022-07-23T06:45:14;8.25;;;4.88;;
25111;SDS011;13092;51.996;4.458;2022-07-23T06:47:44;6.95;;;5.72;;
25111;SDS011;13092;51.996;4.458;2022-07-23T06:50:13;6.20;;;5.05;;
25111;SDS011;13092;51.996;4.458;2022-07-23T06:52:43;6.88;;;4.50;;
25111;SDS011;13092;51.996;4.458;2022-07-23T06:55:23;7.10;;;4.13;;
25111;SDS011;13092;51.996;4.458;2022-07-23T06:57:52;6.28;;;3.60;;
25111;SDS011;13092;51.996;4.458;2022-07-23T07:00:22;4.05;;;3.47;;
25111;SDS011;13092;51.996;4.458;2022-07-23T07:02:54;5.75;;;3.90;;
25111;SDS011;13092;51.996;4.458;2022-07-23T07:05:26;6.65;;;4.00;;
25111;SDS011;13092;51.996;4.458;2022-07-23T07:08:08;6.68;;;4.78;;
25111;SDS011;13092;51.996;4.458;2022-07-23T07:10:41;7.10;;;3.90;;
25111;SDS011;13092;51.996;4.458;2022-07-23T07:13:16;8.70;;;4.40;;
25111;SDS011;13092;51.996;4.458;2022-07-23T07:15:46;8.75;;;4.70;;
25111;SDS011;13092;51.996;4.458;2022-07-23T07:18:14;6.18;;;4.57;;
25111;SDS011;13092;51.996;4.458;2022-07-23T07:20:43;6.85;;;4.70;;
25111;SDS011;13092;51.996;4.458;2022-07-23T07:23:16;6.15;;;4.30;;
25111;SDS011;13092;51.996;4.458;2022-07-23T07:25:44;8.73;;;3.85;;
25111;SDS011;13092;51.996;4.458;2022-07-23T07:28:20;6.05;;;4.13;;
25111;SDS011;13092;51.996;4.458;2022-07-23T07:30:55;9.15;;;4.45;;
25111;SDS011;13092;51.996;4.458;2022-07-23T07:33:32;5.13;;;4.13;;
25111;SDS011;13092;51.996;4.458;2022-07-23T07:36:00;6.18;;;3.70;;
25111;SDS011;13092;51.996;4.458;2022-07-23T07:38:50;5.97;;;4.00;;
25111;SDS011;13092;51.996;4.458;2022-07-23T07:41:23;5.63;;;3.65;;
25111;SDS011;13092;51.996;4.458;2022-07-23T07:43:55;6.45;;;3.45;;
25111;SDS011;13092;51.996;4.458;2022-07-23T07:46:30;8.48;;;4.20;;
25111;SDS011;13092;51.996;4.458;2022-07-23T07:49:06;6.05;;;3.70;;
25111;SDS011;13092;51.996;4.458;2022-07-23T07:51:41;5.15;;;3.58;;
25111;SDS011;13092;51.996;4.458;2022-07-23T07:54:15;6.22;;;3.42;;
25111;SDS011;13092;51.996;4.458;2022-07-23T07:56:49;5.85;;;2.90;;
25111;SDS011;13092;51.996;4.458;2022-07-23T07:59:18;4.47;;;3.08;;
25111;SDS011;13092;51.996;4.458;2022-07-23T08:02:00;4.15;;;2.63;;
25111;SDS011;13092;51.996;4.458;2022-07-23T08:04:32;3.72;;;2.70;;
25111;SDS011;13092;51.996;4.458;2022-07-23T08:07:22;4.07;;;2.50;;
25111;SDS011;13092;51.996;4.458;2022-07-23T08:10:16;5.18;;;2.45;;
25111;SDS011;13092;51.996;4.458;2022-07-23T08:12:47;3.97;;;2.38;;
25111;SDS011;13092;51.996;4.458;2022-07-23T08:19:01;5.55;;;2.47;;
25111;SDS011;13092;51.996;4.458;2022-07-23T08:21:42;4.20;;;2.80;;
25111;SDS011;13092;51.996;4.458;2022-07-23T08:24:38;5.65;;;2.75;;
25111;SDS011;13092;51.996;4.458;2022-07-23T08:28:04;4.82;;;2.80;;
25111;SDS011;13092;51.996;4.458;2022-07-23T08:38:05;6.90;;;3.20;;
25111;SDS011;13092;51.996;4.458;2022-07-23T08:41:15;7.57;;;3.55;;
25111;SDS011;13092;51.996;4.458;2022-07-23T08:44:49;6.95;;;4.20;;
25111;SDS011;13092;51.996;4.458;2022-07-23T08:59:57;6.88;;;3.70;;
25111;SDS011;13092;51.996;4.458;2022-07-23T09:03:18;4.38;;;3.15;;
25111;SDS011;13092;51.996;4.458;2022-07-23T09:06:41;6.47;;;3.35;;
25111;SDS011;13092;51.996;4.458;2022-07-23T09:40:32;5.80;;;3.33;;
25111;SDS011;13092;51.996;4.458;2022-07-23T09:43:00;5.35;;;3.35;;
25111;SDS011;13092;51.996;4.458;2022-07-23T09:45:28;6.13;;;3.30;;
25111;SDS011;13092;51.996;4.458;2022-07-23T09:48:09;5.63;;;3.28;;
25111;SDS011;13092;51.996;4.458;2022-07-23T09:50:39;5.00;;;3.47;;
25111;SDS011;13092;51.996;4.458;2022-07-23T09:53:07;8.02;;;3.80;;
25111;SDS011;13092;51.996;4.458;2022-07-23T09:55:37;6.40;;;3.78;;
25111;SDS011;13092;51.996;4.458;2022-07-23T09:58:05;5.35;;;3.60;;
25111;SDS011;13092;51.996;4.458;2022-07-23T10:00:36;7.55;;;3.78;;
25111;SDS011;13092;51.996;4.458;2022-07-23T10:03:05;8.73;;;3.80;;
25111;SDS011;13092;51.996;4.458;2022-07-23T10:05:33;6.18;;;3.53;;
25111;SDS011;13092;51.996;4.458;2022-07-23T10:08:04;6.65;;;3.55;;
25111;SDS011;13092;51.996;4.458;2022-07-23T10:10:36;5.10;;;3.60;;
25111;SDS011;13092;51.996;4.458;2022-07-23T10:13:06;5.30;;;3.70;;
25111;SDS011;13092;51.996;4.458;2022-07-23T10:15:52;5.05;;;3.30;;
25111;SDS011;13092;51.996;4.458;2022-07-23T10:18:20;6.90;;;3.42;;
25111;SDS011;13092;51.996;4.458;2022-07-23T10:20:48;7.30;;;3.83;;
25111;SDS011;13092;51.996;4.458;2022-07-23T10:23:18;4.38;;;2.92;;
25111;SDS011;13092;51.996;4.458;2022-07-23T10:25:54;5.90;;;3.70;;
25111;SDS011;13092;51.996;4.458;2022-07-23T10:28:33;4.80;;;3.20;;
25111;SDS011;13092;51.996;4.458;2022-07-23T10:31:35;6.18;;;3.65;;
25111;SDS011;13092;51.996;4.458;2022-07-23T10:34:30;5.22;;;3.35;;
25111;SDS011;13092;51.996;4.458;2022-07-23T10:37:12;5.68;;;3.08;;
25111;SDS011;13092;51.996;4.458;2022-07-23T10:39:47;5.13;;;2.90;;
25111;SDS011;13092;51.996;4.458;2022-07-23T10:42:17;5.95;;;3.58;;
25111;SDS011;13092;51.996;4.458;2022-07-23T10:44:48;3.45;;;2.70;;
25111;SDS011;13092;51.996;4.458;2022-07-23T10:47:21;5.22;;;2.67;;
25111;SDS011;13092;51.996;4.458;2022-07-23T10:50:20;5.15;;;2.13;;
25111;SDS011;13092;51.996;4.458;2022-07-23T10:53:08;4.90;;;3.00;;
25111;SDS011;13092;51.996;4.458;2022-07-23T10:55:40;4.60;;;2.70;;
25111;SDS011;13092;51.996;4.458;2022-07-23T10:58:12;4.05;;;2.53;;
25111;SDS011;13092;51.996;4.458;2022-07-23T11:00:47;4.57;;;2.55;;
25111;SDS011;13092;51.996;4.458;2022-07-23T11:06:05;3.65;;;2.38;;
25111;SDS011;13092;51.996;4.458;2022-07-23T11:08:34;4.45;;;2.53;;
25111;SDS011;13092;51.996;4.458;2022-07-23T11:11:09;5.50;;;2.60;;
25111;SDS011;13092;51.996;4.458;2022-07-23T11:13:42;3.50;;;2.60;;
25111;SDS011;13092;51.996;4.458;2022-07-23T11:16:17;3.28;;;2.30;;
25111;SDS011;13092;51.996;4.458;2022-07-23T11:21:42;4.78;;;2.55;;
25111;SDS011;13092;51.996;4.458;2022-07-23T11:24:11;3.55;;;2.40;;
25111;SDS011;13092;51.996;4.458;2022-07-23T11:26:42;3.95;;;2.75;;
25111;SDS011;13092;51.996;4.458;2022-07-23T11:32:21;3.40;;;2.55;;
25111;SDS011;13092;51.996;4.458;2022-07-23T11:34:59;3.03;;;2.50;;
25111;SDS011;13092;51.996;4.458;2022-07-23T11:37:28;2.83;;;2.15;;
25111;SDS011;13092;51.996;4.458;2022-07-23T11:40:03;4.25;;;2.50;;
25111;SDS011;13092;51.996;4.458;2022-07-23T11:42:35;2.85;;;2.30;;
25111;SDS011;13092;51.996;4.458;2022-07-23T11:45:07;3.03;;;2.42;;
25111;SDS011;13092;51.996;4.458;2022-07-23T11:47:36;6.97;;;2.17;;
25111;SDS011;13092;51.996;4.458;2022-07-23T11:50:05;3.80;;;2.42;;
25111;SDS011;13092;51.996;4.458;2022-07-23T11:52:34;3.70;;;2.40;;
25111;SDS011;13092;51.996;4.458;2022-07-23T11:55:03;4.55;;;2.53;;
25111;SDS011;13092;51.996;4.458;2022-07-23T11:57:33;6.45;;;2.85;;
25111;SDS011;13092;51.996;4.458;2022-07-23T12:00:04;3.78;;;2.70;;
25111;SDS011;13092;51.996;4.458;2022-07-23T12:02:37;4.50;;;2.97;;
25111;SDS011;13092;51.996;4.458;2022-07-23T12:05:06;3.95;;;2.78;;
25111;SDS011;13092;51.996;4.458;2022-07-23T12:07:37;3.75;;;2.60;;
25111;SDS011;13092;51.996;4.458;2022-07-23T12:10:09;3.63;;;2.78;;
25111;SDS011;13092;51.996;4.458;2022-07-23T12:12:39;6.50;;;3.38;;
25111;SDS011;13092;51.996;4.458;2022-07-23T12:15:10;3.88;;;2.70;;
25111;SDS011;13092;51.996;4.458;2022-07-23T12:17:41;5.85;;;3.00;;
25111;SDS011;13092;51.996;4.458;2022-07-23T12:20:17;4.25;;;2.90;;
25111;SDS011;13092;51.996;4.458;2022-07-23T12:22:48;5.88;;;3.05;;
25111;SDS011;13092;51.996;4.458;2022-07-23T12:25:19;5.22;;;3.08;;
25111;SDS011;13092;51.996;4.458;2022-07-23T12:27:57;4.47;;;3.22;;
25111;SDS011;13092;51.996;4.458;2022-07-23T12:30:29;5.15;;;3.00;;
25111;SDS011;13092;51.996;4.458;2022-07-23T12:33:05;3.40;;;2.72;;
25111;SDS011;13092;51.996;4.458;2022-07-23T12:35:36;5.20;;;2.90;;
25111;SDS011;13092;51.996;4.458;2022-07-23T12:38:08;3.42;;;2.65;;
25111;SDS011;13092;51.996;4.458;2022-07-23T12:40:41;5.30;;;2.90;;
25111;SDS011;13092;51.996;4.458;2022-07-23T12:43:11;5.72;;;3.20;;
25111;SDS011;13092;51.996;4.458;2022-07-23T12:45:49;3.88;;;3.10;;
25111;SDS011;13092;51.996;4.458;2022-07-23T12:48:19;3.85;;;2.95;;
25111;SDS011;13092;51.996;4.458;2022-07-23T12:50:56;7.82;;;3.42;;
25111;SDS011;13092;51.996;4.458;2022-07-23T12:53:26;5.82;;;3.40;;
25111;SDS011;13092;51.996;4.458;2022-07-23T12:55:58;5.65;;;3.10;;
25111;SDS011;13092;51.996;4.458;2022-07-23T12:58:42;5.00;;;3.55;;
25111;SDS011;13092;51.996;4.458;2022-07-23T13:01:24;5.28;;;3.72;;
25111;SDS011;13092;51.996;4.458;2022-07-23T13:03:55;3.53;;;3.10;;
25111;SDS011;13092;51.996;4.458;2022-07-23T13:06:25;5.13;;;3.60;;
25111;SDS011;13092;51.996;4.458;2022-07-23T13:08:54;5.90;;;3.63;;
25111;SDS011;13092;51.996;4.458;2022-07-23T13:11:23;8.70;;;3.40;;
25111;SDS011;13092;51.996;4.458;2022-07-23T13:13:51;5.30;;;3.40;;
25111;SDS011;13092;51.996;4.458;2022-07-23T13:16:19;5.05;;;3.25;;
25111;SDS011;13092;51.996;4.458;2022-07-23T13:18:49;4.97;;;3.30;;
25111;SDS011;13092;51.996;4.458;2022-07-23T13:21:17;7.10;;;3.53;;
25111;SDS011;13092;51.996;4.458;2022-07-23T13:23:46;5.28;;;3.10;;
25111;SDS011;13092;51.996;4.458;2022-07-23T13:26:15;4.93;;;3.30;;
25111;SDS011;13092;51.996;4.458;2022-07-23T13:28:43;6.05;;;4.00;;
25111;SDS011;13092;51.996;4.458;2022-07-23T13:31:13;7.82;;;3.97;;
25111;SDS011;13092;51.996;4.458;2022-07-23T13:33:41;8.65;;;4.35;;
25111;SDS011;13092;51.996;4.458;2022-07-23T13:36:12;6.78;;;4.22;;
25111;SDS011;13092;51.996;4.458;2022-07-23T13:38:40;5.28;;;3.50;;
25111;SDS011;13092;51.996;4.458;2022-07-23T13:41:08;6.38;;;4.10;;
25111;SDS011;13092;51.996;4.458;2022-07-23T13:43:38;6.45;;;4.10;;
25111;SDS011;13092;51.996;4.458;2022-07-23T13:46:06;5.93;;;3.80;;
25111;SDS011;13092;51.996;4.458;2022-07-23T13:48:34;6.13;;;3.20;;
25111;SDS011;13092;51.996;4.458;2022-07-23T13:51:03;8.82;;;4.00;;
25111;SDS011;13092;51.996;4.458;2022-07-23T13:53:33;7.18;;;3.60;;
25111;SDS011;13092;51.996;4.458;2022-07-23T13:56:02;7.43;;;3.80;;
25111;SDS011;13092;51.996;4.458;2022-07-23T13:58:30;8.70;;;4.15;;
25111;SDS011;13092;51.996;4.458;2022-07-23T14:00:59;7.63;;;3.70;;
25111;SDS011;13092;51.996;4.458;2022-07-23T14:03:27;6.85;;;3.80;;
25111;SDS011;13092;51.996;4.458;2022-07-23T14:05:56;7.40;;;3.85;;
25111;SDS011;13092;51.996;4.458;2022-07-23T14:08:25;7.45;;;3.80;;
25111;SDS011;13092;51.996;4.458;2022-07-23T14:10:56;6.53;;;4.07;;
25111;SDS011;13092;51.996;4.458;2022-07-23T14:13:26;6.68;;;4.15;;
25111;SDS011;13092;51.996;4.458;2022-07-23T14:15:55;6.07;;;3.72;;
25111;SDS011;13092;51.996;4.458;2022-07-23T14:18:24;7.57;;;3.60;;
25111;SDS011;13092;51.996;4.458;2022-07-23T14:20:58;8.15;;;4.40;;
25111;SDS011;13092;51.996;4.458;2022-07-23T14:23:27;5.05;;;3.40;;
25111;SDS011;13092;51.996;4.458;2022-07-23T14:25:58;9.30;;;3.53;;
25111;SDS011;13092;51.996;4.458;2022-07-23T14:28:29;6.50;;;4.13;;
25111;SDS011;13092;51.996;4.458;2022-07-23T14:31:01;6.57;;;3.78;;
25111;SDS011;13092;51.996;4.458;2022-07-23T14:33:29;7.70;;;3.95;;
25111;SDS011;13092;51.996;4.458;2022-07-23T14:35:58;6.40;;;3.90;;
25111;SDS011;13092;51.996;4.458;2022-07-23T14:38:26;5.30;;;3.53;;
25111;SDS011;13092;51.996;4.458;2022-07-23T14:40:58;6.18;;;3.50;;
25111;SDS011;13092;51.996;4.458;2022-07-23T14:43:26;6.47;;;3.45;;
25111;SDS011;13092;51.996;4.458;2022-07-23T14:45:54;5.00;;;3.72;;
25111;SDS011;13092;51.996;4.458;2022-07-23T14:48:22;7.38;;;4.07;;
25111;SDS011;13092;51.996;4.458;2022-07-23T14:50:50;4.70;;;3.15;;
25111;SDS011;13092;51.996;4.458;2022-07-23T14:53:19;4.03;;;3.33;;
25111;SDS011;13092;51.996;4.458;2022-07-23T14:55:50;5.30;;;3.10;;
25111;SDS011;13092;51.996;4.458;2022-07-23T14:58:22;7.93;;;4.15;;
25111;SDS011;13092;51.996;4.458;2022-07-23T15:00:50;5.85;;;3.92;;
25111;SDS011;13092;51.996;4.458;2022-07-23T15:03:18;5.88;;;3.72;;
25111;SDS011;13092;51.996;4.458;2022-07-23T15:05:47;6.55;;;3.83;;
25111;SDS011;13092;51.996;4.458;2022-07-23T15:08:15;6.38;;;3.80;;
25111;SDS011;13092;51.996;4.458;2022-07-23T15:10:49;7.97;;;3.30;;
25111;SDS011;13092;51.996;4.458;2022-07-23T15:13:17;5.93;;;3.88;;
25111;SDS011;13092;51.996;4.458;2022-07-23T15:15:47;7.38;;;3.80;;
25111;SDS011;13092;51.996;4.458;2022-07-23T15:18:19;7.20;;;3.78;;
25111;SDS011;13092;51.996;4.458;2022-07-23T15:20:48;5.45;;;3.65;;
25111;SDS011;13092;51.996;4.458;2022-07-23T15:23:17;6.32;;;3.55;;
25111;SDS011;13092;51.996;4.458;2022-07-23T15:25:45;5.50;;;3.65;;
25111;SDS011;13092;51.996;4.458;2022-07-23T15:28:16;11.07;;;3.88;;
25111;SDS011;13092;51.996;4.458;2022-07-23T15:31:06;6.20;;;3.45;;
25111;SDS011;13092;51.996;4.458;2022-07-23T15:33:35;7.43;;;3.80;;
25111;SDS011;13092;51.996;4.458;2022-07-23T15:36:03;6.30;;;3.53;;
25111;SDS011;13092;51.996;4.458;2022-07-23T15:38:32;5.35;;;3.78;;
25111;SDS011;13092;51.996;4.458;2022-07-23T15:41:01;6.55;;;3.63;;
25111;SDS011;13092;51.996;4.458;2022-07-23T15:43:30;6.43;;;3.50;;
25111;SDS011;13092;51.996;4.458;2022-07-23T15:45:58;4.00;;;3.50;;
25111;SDS011;13092;51.996;4.458;2022-07-23T15:48:28;6.25;;;3.35;;
25111;SDS011;13092;51.996;4.458;2022-07-23T15:50:56;6.00;;;3.65;;
25111;SDS011;13092;51.996;4.458;2022-07-23T15:53:25;6.97;;;3.80;;
25111;SDS011;13092;51.996;4.458;2022-07-23T15:56:03;6.25;;;3.45;;
25111;SDS011;13092;51.996;4.458;2022-07-23T15:58:40;4.93;;;3.17;;
25111;SDS011;13092;51.996;4.458;2022-07-23T16:01:09;4.57;;;3.38;;
25111;SDS011;13092;51.996;4.458;2022-07-23T16:03:40;5.13;;;3.45;;
25111;SDS011;13092;51.996;4.458;2022-07-23T16:06:13;5.65;;;3.28;;
25111;SDS011;13092;51.996;4.458;2022-07-23T16:08:44;5.70;;;3.30;;